createdAt,value
2017-06-22T00:01:52.906Z,2.70
2017-06-22T00:04:20.208Z,2.60
2017-06-22T00:06:47.501Z,3.37
2017-06-22T00:09:14.826Z,2.97
2017-06-22T00:11:42.141Z,2.73
2017-06-22T00:14:09.466Z,2.83
2017-06-22T00:16:36.770Z,2.77
2017-06-22T00:19:04.118Z,2.70
2017-06-22T00:21:31.730Z,2.93
2017-06-22T00:23:59.073Z,3.17
2017-06-22T00:26:26.413Z,2.30
2017-06-22T00:28:53.733Z,2.90
2017-06-22T00:31:21.057Z,3.10
2017-06-22T00:33:48.350Z,2.97
2017-06-22T00:36:15.688Z,3.10
2017-06-22T00:38:43.000Z,3.10
2017-06-22T00:41:10.320Z,2.87
2017-06-22T00:43:37.633Z,3.20
2017-06-22T00:46:04.934Z,2.67
2017-06-22T00:48:32.278Z,3.07
2017-06-22T00:50:59.597Z,3.00
2017-06-22T00:53:26.900Z,3.03
2017-06-22T00:55:54.206Z,3.00
2017-06-22T00:58:21.581Z,3.10
2017-06-22T01:00:48.882Z,3.20
2017-06-22T01:03:16.210Z,3.03
2017-06-22T01:05:43.516Z,3.13
2017-06-22T01:08:10.825Z,3.10
2017-06-22T01:10:38.350Z,3.10
2017-06-22T01:13:05.651Z,3.20
2017-06-22T01:15:32.999Z,2.63
2017-06-22T01:18:00.298Z,3.47
2017-06-22T01:20:27.605Z,3.23
2017-06-22T01:22:54.954Z,3.07
2017-06-22T01:25:22.277Z,3.30
2017-06-22T01:27:49.600Z,2.80
2017-06-22T01:30:16.910Z,2.70
2017-06-22T01:32:44.237Z,3.53
2017-06-22T01:35:11.545Z,3.40
2017-06-22T01:37:38.867Z,3.23
2017-06-22T01:40:06.449Z,3.23
2017-06-22T01:42:33.756Z,3.40
2017-06-22T01:45:01.126Z,3.20
2017-06-22T01:47:28.456Z,3.30
2017-06-22T01:49:55.798Z,3.17
2017-06-22T01:52:23.131Z,3.17
2017-06-22T01:54:50.477Z,3.50
2017-06-22T01:57:17.786Z,3.97
2017-06-22T01:59:45.098Z,3.60
2017-06-22T02:02:12.444Z,3.80
2017-06-22T02:04:39.750Z,3.53
2017-06-22T02:07:07.066Z,4.00
2017-06-22T02:09:34.369Z,3.53
2017-06-22T02:12:01.869Z,3.77
2017-06-22T02:14:29.255Z,3.70
2017-06-22T02:16:56.559Z,3.73
2017-06-22T02:19:23.923Z,3.63
2017-06-22T02:21:51.236Z,4.00
2017-06-22T02:24:18.529Z,3.73
2017-06-22T02:26:45.855Z,3.90
2017-06-22T02:29:13.170Z,4.03
2017-06-22T02:31:40.507Z,4.03
2017-06-22T02:34:07.817Z,4.00
2017-06-22T02:36:35.147Z,4.10
2017-06-22T02:39:02.444Z,3.90
2017-06-22T02:41:29.749Z,4.17
2017-06-22T02:43:57.095Z,4.03
2017-06-22T02:46:24.380Z,3.87
2017-06-22T02:48:51.736Z,3.97
2017-06-22T02:51:19.030Z,4.20
2017-06-22T02:53:46.378Z,4.00
2017-06-22T02:56:13.696Z,4.40
2017-06-22T02:58:41.006Z,4.30
2017-06-22T03:01:08.326Z,3.97
2017-06-22T03:03:35.621Z,3.90
2017-06-22T03:06:02.987Z,4.40
2017-06-22T03:08:30.309Z,4.27
2017-06-22T03:10:57.647Z,4.50
2017-06-22T03:13:25.006Z,4.17
2017-06-22T03:15:52.317Z,4.40
2017-06-22T03:18:19.689Z,4.17
2017-06-22T03:20:47.006Z,4.60
2017-06-22T03:23:14.321Z,4.17
2017-06-22T03:25:41.619Z,4.67
2017-06-22T03:28:08.956Z,4.37
2017-06-22T03:30:36.265Z,4.13
2017-06-22T03:33:03.591Z,4.33
2017-06-22T03:35:30.922Z,4.60
2017-06-22T03:37:58.229Z,4.50
2017-06-22T03:40:25.554Z,4.33
2017-06-22T03:42:52.864Z,4.80
2017-06-22T03:45:20.206Z,4.50
2017-06-22T03:47:47.505Z,5.33
2017-06-22T03:50:14.805Z,4.50
2017-06-22T03:52:42.156Z,4.67
2017-06-22T03:55:09.471Z,4.70
2017-06-22T03:57:36.821Z,5.60
2017-06-22T04:00:04.110Z,4.70
2017-06-22T04:02:31.449Z,4.80
2017-06-22T04:04:58.750Z,4.40
2017-06-22T04:07:26.081Z,4.93
2017-06-22T04:09:53.418Z,4.40
2017-06-22T04:12:20.867Z,4.70
2017-06-22T04:14:48.198Z,4.53
2017-06-22T04:17:15.488Z,4.07
2017-06-22T04:19:42.844Z,5.27
2017-06-22T04:22:10.152Z,5.20
2017-06-22T04:24:37.461Z,4.70
2017-06-22T04:27:04.768Z,4.20
2017-06-22T04:29:32.089Z,4.90
2017-06-22T04:31:59.418Z,4.67
2017-06-22T04:34:26.741Z,4.50
2017-06-22T04:36:54.099Z,4.93
2017-06-22T04:39:21.416Z,4.57
2017-06-22T04:41:48.766Z,4.80
2017-06-22T04:44:16.124Z,4.90
2017-06-22T04:46:43.454Z,4.97
2017-06-22T04:49:10.811Z,5.13
2017-06-22T04:51:38.137Z,5.30
2017-06-22T04:54:05.500Z,4.87
2017-06-22T04:56:32.825Z,5.00
2017-06-22T04:59:00.148Z,5.57
2017-06-22T05:01:27.484Z,4.80
2017-06-22T05:03:54.781Z,5.30
2017-06-22T05:06:22.136Z,5.10
2017-06-22T05:08:49.432Z,4.53
2017-06-22T05:11:16.741Z,4.83
2017-06-22T05:13:44.075Z,4.60
2017-06-22T05:16:11.373Z,4.90
2017-06-22T05:18:38.698Z,4.73
2017-06-22T05:21:06.013Z,5.27
2017-06-22T05:23:33.344Z,4.50
2017-06-22T05:26:00.676Z,4.40
2017-06-22T05:28:27.975Z,5.10
2017-06-22T05:30:55.298Z,4.67
2017-06-22T05:33:22.603Z,4.33
2017-06-22T05:35:49.954Z,5.37
2017-06-22T05:38:17.249Z,5.43
2017-06-22T05:40:44.548Z,5.40
2017-06-22T05:43:11.891Z,4.73
2017-06-22T05:45:39.222Z,4.70
2017-06-22T05:48:06.771Z,5.23
2017-06-22T05:50:34.097Z,4.93
2017-06-22T05:53:01.414Z,5.23
2017-06-22T05:55:28.712Z,4.80
2017-06-22T05:57:56.082Z,4.90
2017-06-22T06:00:23.383Z,4.83
2017-06-22T06:02:50.706Z,4.13
2017-06-22T06:05:18.020Z,4.33
2017-06-22T06:07:45.308Z,4.77
2017-06-22T06:10:12.644Z,4.77
2017-06-22T06:12:39.997Z,4.00
2017-06-22T06:15:07.339Z,4.20
2017-06-22T06:17:34.650Z,4.40
2017-06-22T06:20:01.941Z,4.13
2017-06-22T06:22:29.265Z,3.90
2017-06-22T06:24:56.563Z,3.60
2017-06-22T06:27:23.881Z,3.70
2017-06-22T06:29:51.176Z,3.57
2017-06-22T06:32:18.529Z,3.70
2017-06-22T06:34:45.860Z,3.70
2017-06-22T06:37:13.194Z,3.57
2017-06-22T06:39:40.500Z,2.97
2017-06-22T06:42:07.820Z,3.20
2017-06-22T06:44:35.142Z,3.20
2017-06-22T06:47:02.428Z,3.53
2017-06-22T06:49:29.741Z,3.03
2017-06-22T06:51:57.046Z,3.17
2017-06-22T06:54:24.381Z,3.20
2017-06-22T06:56:51.698Z,2.97
2017-06-22T06:59:19.003Z,2.87
2017-06-22T07:01:46.318Z,3.10
2017-06-22T07:04:13.629Z,2.60
2017-06-22T07:06:40.977Z,2.57
2017-06-22T07:09:08.313Z,3.00
2017-06-22T07:11:35.664Z,3.20
2017-06-22T07:14:02.987Z,2.90
2017-06-22T07:16:30.297Z,2.50
2017-06-22T07:18:57.789Z,2.37
2017-06-22T07:21:25.131Z,2.30
2017-06-22T07:23:52.606Z,2.50
2017-06-22T07:26:19.906Z,2.70
2017-06-22T07:28:47.241Z,2.57
2017-06-22T07:31:14.554Z,2.70
2017-06-22T07:33:41.850Z,2.70
2017-06-22T07:36:09.190Z,2.70
2017-06-22T07:38:36.530Z,2.40
2017-06-22T07:41:03.843Z,2.73
2017-06-22T07:43:31.152Z,3.17
2017-06-22T07:45:58.520Z,2.73
2017-06-22T07:48:25.805Z,2.70
2017-06-22T07:50:53.314Z,2.30
2017-06-22T07:53:22.696Z,2.60
2017-06-22T07:55:50.013Z,2.80
2017-06-22T07:58:17.329Z,2.90
2017-06-22T08:00:44.627Z,2.60
2017-06-22T08:03:11.945Z,3.13
2017-06-22T08:05:39.238Z,2.73
2017-06-22T08:08:06.553Z,2.70
2017-06-22T08:10:33.881Z,2.90
2017-06-22T08:13:01.582Z,2.93
2017-06-22T08:15:28.910Z,2.87
2017-06-22T08:17:56.417Z,3.33
2017-06-22T08:20:23.908Z,3.00
2017-06-22T08:22:51.215Z,3.00
2017-06-22T08:25:18.509Z,3.20
2017-06-22T08:27:45.826Z,2.80
2017-06-22T08:30:13.147Z,3.30
2017-06-22T08:32:40.498Z,3.20
2017-06-22T08:35:07.804Z,2.90
2017-06-22T08:37:35.153Z,3.20
2017-06-22T08:40:02.454Z,3.07
2017-06-22T08:42:29.749Z,3.20
2017-06-22T08:44:57.100Z,3.60
2017-06-22T08:47:24.427Z,4.10
2017-06-22T08:49:52.042Z,3.40
2017-06-22T08:52:19.354Z,3.73
2017-06-22T08:54:46.702Z,3.73
2017-06-22T08:57:13.990Z,3.90
2017-06-22T08:59:41.298Z,4.20
2017-06-22T09:02:08.610Z,4.03
2017-06-22T09:04:35.915Z,3.60
2017-06-22T09:07:03.234Z,4.10
2017-06-22T09:09:30.533Z,3.87
2017-06-22T09:11:57.888Z,4.67
2017-06-22T09:14:25.173Z,4.40
2017-06-22T09:16:52.477Z,4.00
2017-06-22T09:19:19.794Z,4.53
2017-06-22T09:21:47.088Z,3.83
2017-06-22T09:24:14.823Z,4.20
2017-06-22T09:26:42.112Z,4.53
2017-06-22T09:29:09.481Z,4.30
2017-06-22T09:31:36.789Z,4.73
2017-06-22T09:34:05.447Z,4.40
2017-06-22T09:36:32.825Z,4.80
2017-06-22T09:39:00.422Z,3.90
2017-06-22T09:41:27.743Z,4.23
2017-06-22T09:43:55.050Z,4.30
2017-06-22T09:46:22.346Z,4.03
2017-06-22T09:48:49.661Z,4.30
2017-06-22T09:51:16.961Z,4.17
2017-06-22T09:53:44.281Z,4.13
2017-06-22T09:56:11.613Z,4.90
2017-06-22T09:58:38.960Z,4.00
2017-06-22T10:01:06.270Z,4.40
2017-06-22T10:03:33.896Z,4.53
2017-06-22T10:06:01.209Z,4.23
2017-06-22T10:08:28.518Z,4.70
2017-06-22T10:10:55.854Z,4.73
2017-06-22T10:13:23.192Z,4.07
2017-06-22T10:15:50.512Z,4.07
2017-06-22T10:18:17.854Z,4.00
2017-06-22T10:20:45.202Z,5.17
2017-06-22T10:23:12.642Z,4.73
2017-06-22T10:25:39.927Z,5.30
2017-06-22T10:28:07.257Z,4.90
2017-06-22T10:30:34.565Z,4.30
2017-06-22T10:33:01.887Z,5.03
2017-06-22T10:35:29.335Z,5.10
2017-06-22T10:37:56.831Z,5.00
2017-06-22T10:40:24.320Z,5.27
2017-06-22T10:42:51.622Z,5.30
2017-06-22T10:45:20.228Z,4.97
2017-06-22T10:47:47.524Z,4.70
2017-06-22T10:50:14.844Z,4.60
2017-06-22T10:52:42.152Z,5.13
2017-06-22T10:55:09.474Z,5.10
2017-06-22T10:57:36.787Z,4.80
2017-06-22T11:00:04.926Z,4.83
2017-06-22T11:02:32.218Z,5.10
2017-06-22T11:04:59.517Z,5.03
2017-06-22T11:07:26.850Z,4.63
2017-06-22T11:09:54.371Z,5.13
2017-06-22T11:12:21.680Z,5.47
2017-06-22T11:14:48.971Z,5.10
2017-06-22T11:17:16.284Z,4.93
2017-06-22T11:19:43.610Z,5.30
2017-06-22T11:22:10.954Z,5.50
2017-06-22T11:24:38.268Z,5.20
2017-06-22T11:27:05.556Z,5.03
2017-06-22T11:29:32.916Z,5.00
2017-06-22T11:32:00.286Z,5.30
2017-06-22T11:34:27.581Z,5.57
2017-06-22T11:36:54.953Z,5.10
2017-06-22T11:39:22.251Z,5.83
2017-06-22T11:41:49.796Z,4.83
2017-06-22T11:44:17.095Z,5.73
2017-06-22T11:46:44.409Z,5.30
2017-06-22T11:49:11.754Z,5.47
2017-06-22T11:51:39.067Z,5.40
2017-06-22T11:54:06.422Z,5.07
2017-06-22T11:56:34.059Z,4.90
2017-06-22T11:59:01.362Z,5.40
2017-06-22T12:01:28.882Z,5.07
2017-06-22T12:03:56.196Z,5.30
2017-06-22T12:06:23.565Z,5.40
2017-06-22T12:08:50.889Z,5.10
2017-06-22T12:11:18.210Z,5.10
2017-06-22T12:13:45.533Z,5.60
2017-06-22T12:16:12.842Z,5.53
2017-06-22T12:18:40.168Z,5.40
2017-06-22T12:21:08.086Z,5.70
2017-06-22T12:23:35.429Z,5.47
2017-06-22T12:26:02.737Z,5.63
2017-06-22T12:28:30.032Z,6.37
2017-06-22T12:30:57.382Z,6.57
2017-06-22T12:33:24.688Z,6.00
2017-06-22T12:35:52.390Z,5.93
2017-06-22T12:38:19.890Z,6.17
2017-06-22T12:40:47.242Z,6.60
2017-06-22T12:43:14.555Z,6.83
2017-06-22T12:45:41.845Z,6.63
2017-06-22T12:48:09.171Z,7.90
2017-06-22T12:50:36.502Z,6.73
2017-06-22T12:53:03.888Z,6.23
2017-06-22T12:55:31.196Z,7.77
2017-06-22T12:57:58.658Z,7.80
2017-06-22T13:00:25.981Z,10.80
2017-06-22T13:02:53.306Z,10.93
2017-06-22T13:05:20.634Z,11.80
2017-06-22T13:07:48.024Z,10.53
2017-06-22T13:10:15.421Z,10.50
2017-06-22T13:12:42.767Z,10.50
2017-06-22T13:15:10.088Z,12.83
2017-06-22T13:17:37.413Z,13.40
2017-06-22T13:20:04.758Z,11.77
2017-06-22T13:22:32.089Z,13.73
2017-06-22T13:24:59.424Z,13.73
2017-06-22T13:27:26.776Z,13.10
2017-06-22T13:29:54.076Z,15.40
2017-06-22T13:32:21.396Z,14.03
2017-06-22T13:34:48.921Z,12.10
2017-06-22T13:37:16.215Z,11.70
2017-06-22T13:39:43.540Z,11.37
2017-06-22T13:42:10.934Z,12.37
2017-06-22T13:44:38.289Z,11.67
2017-06-22T13:47:05.610Z,11.30
2017-06-22T13:49:32.944Z,12.30
2017-06-22T13:52:00.613Z,11.50
2017-06-22T13:54:27.924Z,12.97
2017-06-22T13:56:55.297Z,13.60
2017-06-22T13:59:22.599Z,12.13
2017-06-22T14:01:49.970Z,11.50
2017-06-22T14:04:17.593Z,11.03
2017-06-22T14:06:44.978Z,13.00
2017-06-22T14:09:12.285Z,13.10
2017-06-22T14:11:39.640Z,12.10
2017-06-22T14:14:06.968Z,13.47
2017-06-22T14:16:34.345Z,12.80
2017-06-22T14:19:01.666Z,11.90
2017-06-22T14:21:28.974Z,11.50
2017-06-22T14:23:56.356Z,12.60
2017-06-22T14:26:23.657Z,12.13
2017-06-22T14:28:51.052Z,11.33
2017-06-22T14:31:18.726Z,11.77
2017-06-22T14:33:46.020Z,10.70
2017-06-22T14:36:13.361Z,11.30
2017-06-22T14:38:40.673Z,10.90
2017-06-22T14:41:08.027Z,10.83
2017-06-22T14:43:35.368Z,10.97
2017-06-22T14:46:02.723Z,11.40
2017-06-22T14:48:30.039Z,10.77
2017-06-22T14:50:57.360Z,10.60
2017-06-22T14:53:24.653Z,10.00
2017-06-22T14:55:52.006Z,11.20
2017-06-22T14:58:19.303Z,11.00
2017-06-22T15:00:46.668Z,10.17
2017-06-22T15:03:14.014Z,10.00
2017-06-22T15:05:41.358Z,10.60
2017-06-22T15:08:08.673Z,10.47
2017-06-22T15:10:36.045Z,10.60
2017-06-22T15:13:03.354Z,10.60
2017-06-22T15:15:30.728Z,10.07
2017-06-22T15:17:58.037Z,9.40
2017-06-22T15:20:25.390Z,10.60
2017-06-22T15:22:52.704Z,11.07
2017-06-22T15:25:20.022Z,11.80
2017-06-22T15:27:47.343Z,10.93
2017-06-22T15:30:14.927Z,10.83
2017-06-22T15:32:42.244Z,10.63
2017-06-22T15:35:09.578Z,10.63
2017-06-22T15:37:36.918Z,10.70
2017-06-22T15:40:04.226Z,11.13
2017-06-22T15:42:31.588Z,10.00
2017-06-22T15:44:58.899Z,10.83
2017-06-22T15:47:26.200Z,11.00
2017-06-22T15:49:53.515Z,10.87
2017-06-22T15:52:20.824Z,11.70
2017-06-22T15:54:48.166Z,11.30
2017-06-22T15:57:15.468Z,11.10
2017-06-22T15:59:42.787Z,11.00
2017-06-22T16:02:10.124Z,10.50
2017-06-22T16:04:37.480Z,11.50
2017-06-22T16:07:04.789Z,10.10
2017-06-22T16:09:32.124Z,10.93
2017-06-22T16:11:59.441Z,11.30
2017-06-22T16:14:26.792Z,12.27
2017-06-22T16:16:54.113Z,11.67
2017-06-22T16:19:21.444Z,12.17
2017-06-22T16:21:48.761Z,11.73
2017-06-22T16:24:16.120Z,12.10
2017-06-22T16:26:43.424Z,12.53
2017-06-22T16:29:10.791Z,12.80
2017-06-22T16:31:38.116Z,13.30
2017-06-22T16:34:05.473Z,12.63
2017-06-22T16:36:32.780Z,13.30
2017-06-22T16:39:00.122Z,14.30
2017-06-22T16:41:27.429Z,14.70
2017-06-22T16:43:54.950Z,15.40
2017-06-22T16:46:22.253Z,15.00
2017-06-22T16:48:49.590Z,15.43
2017-06-22T16:51:16.898Z,15.57
2017-06-22T16:53:44.241Z,16.20
2017-06-22T16:56:11.549Z,15.47
2017-06-22T16:58:38.878Z,17.10
2017-06-22T17:01:06.213Z,17.30
2017-06-22T17:03:33.582Z,17.37
2017-06-22T17:06:00.899Z,16.57
2017-06-22T17:08:28.254Z,15.97
2017-06-22T17:10:55.588Z,16.00
2017-06-22T17:13:22.916Z,16.20
2017-06-22T17:15:50.247Z,15.70
2017-06-22T17:18:17.628Z,16.30
2017-06-22T17:20:44.933Z,14.80
2017-06-22T17:23:12.983Z,15.60
2017-06-22T17:25:40.308Z,14.93
2017-06-22T17:28:07.672Z,14.23
2017-06-22T17:30:35.023Z,14.37
2017-06-22T17:33:02.357Z,14.10
2017-06-22T17:35:29.705Z,14.07
2017-06-22T17:37:57.050Z,13.80
2017-06-22T17:40:24.387Z,14.00
2017-06-22T17:42:51.746Z,14.30
2017-06-22T17:45:19.077Z,14.53
2017-06-22T17:47:46.420Z,14.30
2017-06-22T17:50:13.756Z,14.20
2017-06-22T17:52:41.125Z,13.77
2017-06-22T17:55:08.448Z,13.80
2017-06-22T17:57:35.753Z,14.60
2017-06-22T18:00:03.082Z,14.60
2017-06-22T18:02:30.388Z,13.17
2017-06-22T18:04:57.713Z,14.30
2017-06-22T18:07:25.026Z,14.87
2017-06-22T18:09:52.393Z,14.60
2017-06-22T18:12:19.701Z,15.03
2017-06-22T18:14:47.082Z,13.80
2017-06-22T18:17:14.394Z,15.40
2017-06-22T18:19:41.783Z,14.93
2017-06-22T18:22:09.264Z,14.93
2017-06-22T18:24:36.576Z,14.93
2017-06-22T18:27:03.920Z,14.53
2017-06-22T18:29:31.252Z,14.77
2017-06-22T18:31:58.586Z,15.00
2017-06-22T18:34:26.179Z,14.67
2017-06-22T18:36:53.525Z,13.27
2017-06-22T18:39:20.842Z,13.67
2017-06-22T18:41:48.162Z,13.90
2017-06-22T18:44:15.491Z,13.03
2017-06-22T18:46:42.812Z,13.10
2017-06-22T18:49:10.159Z,12.90
2017-06-22T18:51:37.528Z,13.17
2017-06-22T18:54:04.880Z,13.20
2017-06-22T18:56:32.207Z,13.83
2017-06-22T18:58:59.518Z,14.23
2017-06-22T19:01:26.864Z,14.33
2017-06-22T19:03:54.185Z,14.00
2017-06-22T19:06:21.538Z,13.57
2017-06-22T19:08:48.878Z,13.30
2017-06-22T19:11:16.255Z,12.90
2017-06-22T19:13:43.573Z,13.70
2017-06-22T19:16:10.890Z,13.47
2017-06-22T19:18:38.214Z,13.17
2017-06-22T19:21:05.737Z,13.63
2017-06-22T19:23:33.099Z,13.17
2017-06-22T19:26:00.560Z,12.77
2017-06-22T19:28:27.910Z,13.23
2017-06-22T19:30:55.239Z,13.00
2017-06-22T19:33:22.560Z,13.23
2017-06-22T19:35:49.870Z,12.73
2017-06-22T19:38:17.179Z,13.20
2017-06-22T19:40:44.515Z,13.17
2017-06-22T19:43:12.170Z,13.53
2017-06-22T19:45:39.517Z,13.50
2017-06-22T19:48:06.836Z,12.73
2017-06-22T19:50:34.207Z,13.20
2017-06-22T19:53:01.515Z,12.93
2017-06-22T19:55:28.827Z,12.10
2017-06-22T19:57:56.293Z,13.97
2017-06-22T20:00:23.661Z,13.00
2017-06-22T20:02:51.007Z,12.87
2017-06-22T20:05:18.581Z,13.43
2017-06-22T20:07:45.889Z,5.90
2017-06-22T20:10:13.238Z,0.87
2017-06-22T20:12:40.545Z,0.60
2017-06-22T20:15:07.865Z,0.60
2017-06-22T20:17:35.181Z,0.60
2017-06-22T20:20:02.493Z,1.63
2017-06-22T20:22:30.121Z,0.50
2017-06-22T20:24:57.492Z,0.50
2017-06-22T20:27:24.805Z,0.50
2017-06-22T20:29:52.393Z,0.50
2017-06-22T20:32:19.702Z,0.87
2017-06-22T20:34:47.066Z,0.50
2017-06-22T20:37:14.365Z,0.80
2017-06-22T20:39:41.662Z,0.50
2017-06-22T20:42:08.968Z,0.50
2017-06-22T20:44:36.291Z,0.50
2017-06-22T20:47:03.629Z,0.50
2017-06-22T20:49:30.973Z,0.50
2017-06-22T20:51:58.241Z,0.93
2017-06-22T20:54:25.563Z,0.73
2017-06-22T20:56:52.884Z,0.77
2017-06-22T20:59:20.481Z,1.03
2017-06-22T21:01:47.778Z,0.80
2017-06-22T21:04:15.131Z,0.50
2017-06-22T21:06:42.432Z,0.50
2017-06-22T21:09:09.760Z,0.50
2017-06-22T21:11:37.084Z,0.50
2017-06-22T21:14:04.463Z,0.40
2017-06-22T21:16:31.778Z,0.40
2017-06-22T21:18:59.077Z,0.60
2017-06-22T21:21:26.474Z,1.37
2017-06-22T21:23:53.765Z,0.70
2017-06-22T21:26:21.083Z,0.60
2017-06-22T21:28:48.402Z,0.70
2017-06-22T21:31:15.981Z,0.40
2017-06-22T21:33:43.298Z,0.40
2017-06-22T21:36:10.620Z,0.50
2017-06-22T21:38:37.947Z,0.40
2017-06-22T21:41:05.252Z,0.40
2017-06-22T21:43:32.586Z,0.50
2017-06-22T21:45:59.923Z,0.40
2017-06-22T21:48:27.220Z,0.40
2017-06-22T21:50:54.522Z,0.40
2017-06-22T21:53:21.835Z,0.40
2017-06-22T21:55:49.156Z,0.40
2017-06-22T21:58:16.524Z,0.50
2017-06-22T22:00:43.833Z,0.53
2017-06-22T22:03:11.154Z,0.50
2017-06-22T22:05:38.476Z,0.50
2017-06-22T22:08:05.826Z,0.40
2017-06-22T22:10:33.129Z,1.13
2017-06-22T22:13:00.451Z,0.60
2017-06-22T22:15:27.745Z,0.90
2017-06-22T22:17:55.047Z,1.60
2017-06-22T22:20:22.371Z,1.13
2017-06-22T22:22:49.662Z,0.93
2017-06-22T22:25:17.023Z,0.40
2017-06-22T22:27:44.316Z,0.70
2017-06-22T22:30:11.648Z,1.67
2017-06-22T22:32:38.975Z,0.60
2017-06-22T22:35:06.287Z,0.40
2017-06-22T22:37:33.622Z,0.50
2017-06-22T22:40:00.929Z,0.60
2017-06-22T22:42:28.336Z,1.17
2017-06-22T22:44:55.657Z,0.50
2017-06-22T22:47:22.932Z,0.40
2017-06-22T22:49:50.253Z,1.00
2017-06-22T22:52:17.543Z,0.77
2017-06-22T22:54:44.889Z,0.70
2017-06-22T22:57:12.201Z,0.63
2017-06-22T22:59:39.534Z,0.40
2017-06-22T23:02:06.814Z,0.40
2017-06-22T23:04:34.158Z,0.40
2017-06-22T23:07:01.489Z,0.40
2017-06-22T23:09:28.832Z,0.40
2017-06-22T23:11:56.600Z,1.27
2017-06-22T23:14:23.895Z,0.60
2017-06-22T23:16:51.195Z,0.50
2017-06-22T23:19:18.531Z,1.37
2017-06-22T23:21:45.817Z,0.60
2017-06-22T23:24:13.135Z,0.40
2017-06-22T23:26:40.424Z,0.40
2017-06-22T23:29:07.793Z,0.40
2017-06-22T23:31:35.084Z,0.50
2017-06-22T23:34:02.377Z,1.50
2017-06-22T23:36:29.700Z,1.17
2017-06-22T23:38:57.004Z,0.63
2017-06-22T23:41:24.326Z,0.40
2017-06-22T23:43:51.885Z,0.60
2017-06-22T23:46:19.383Z,0.50
2017-06-22T23:48:46.686Z,0.40
2017-06-22T23:51:14.012Z,0.40
2017-06-22T23:53:41.315Z,0.40
2017-06-22T23:56:08.613Z,1.53
2017-06-22T23:58:35.924Z,0.40
